sensor_id;sensor_type;location;lat;lon;timestamp;P1;durP1;ratioP1;P2;durP2;ratioP2
77326;SDS011;66399;52.322;20.980;2023-03-26T00:00:20;5.90;;;3.10;;
77326;SDS011;66399;52.322;20.980;2023-03-26T00:04:46;6.60;;;3.00;;
77326;SDS011;66399;52.322;20.980;2023-03-26T00:08:51;7.30;;;3.30;;
77326;SDS011;66399;52.322;20.980;2023-03-26T00:12:57;6.10;;;3.10;;
77326;SDS011;66399;52.322;20.980;2023-03-26T00:17:03;6.60;;;2.90;;
77326;SDS011;66399;52.322;20.980;2023-03-26T00:21:09;6.10;;;2.80;;
77326;SDS011;66399;52.322;20.980;2023-03-26T00:25:16;5.70;;;2.60;;
77326;SDS011;66399;52.322;20.980;2023-03-26T00:29:21;6.30;;;2.80;;
77326;SDS011;66399;52.322;20.980;2023-03-26T00:33:28;7.90;;;3.40;;
77326;SDS011;66399;52.322;20.980;2023-03-26T00:37:34;6.20;;;3.30;;
77326;SDS011;66399;52.322;20.980;2023-03-26T00:41:40;8.10;;;3.40;;
77326;SDS011;66399;52.322;20.980;2023-03-26T00:45:47;7.60;;;3.20;;
77326;SDS011;66399;52.322;20.980;2023-03-26T00:49:53;7.20;;;3.00;;
77326;SDS011;66399;52.322;20.980;2023-03-26T00:58:02;8.20;;;3.40;;
77326;SDS011;66399;52.322;20.980;2023-03-26T01:02:09;7.30;;;2.60;;
77326;SDS011;66399;52.322;20.980;2023-03-26T01:06:17;5.70;;;2.80;;
77326;SDS011;66399;52.322;20.980;2023-03-26T01:10:26;6.10;;;2.60;;
77326;SDS011;66399;52.322;20.980;2023-03-26T01:14:33;6.70;;;2.80;;
77326;SDS011;66399;52.322;20.980;2023-03-26T01:18:38;6.90;;;2.60;;
77326;SDS011;66399;52.322;20.980;2023-03-26T01:22:46;5.50;;;2.90;;
77326;SDS011;66399;52.322;20.980;2023-03-26T01:26:56;6.70;;;2.90;;
77326;SDS011;66399;52.322;20.980;2023-03-26T01:31:05;5.70;;;2.90;;
77326;SDS011;66399;52.322;20.980;2023-03-26T01:35:20;4.20;;;2.30;;
77326;SDS011;66399;52.322;20.980;2023-03-26T01:39:27;5.00;;;2.50;;
77326;SDS011;66399;52.322;20.980;2023-03-26T01:43:37;5.30;;;2.30;;
77326;SDS011;66399;52.322;20.980;2023-03-26T01:47:43;6.20;;;2.50;;
77326;SDS011;66399;52.322;20.980;2023-03-26T01:51:51;5.40;;;2.60;;
77326;SDS011;66399;52.322;20.980;2023-03-26T01:56:00;4.10;;;2.10;;
77326;SDS011;66399;52.322;20.980;2023-03-26T02:00:10;5.70;;;2.60;;
77326;SDS011;66399;52.322;20.980;2023-03-26T02:04:20;6.00;;;2.70;;
77326;SDS011;66399;52.322;20.980;2023-03-26T02:08:28;6.50;;;3.00;;
77326;SDS011;66399;52.322;20.980;2023-03-26T02:12:39;5.30;;;2.50;;
77326;SDS011;66399;52.322;20.980;2023-03-26T02:20:51;4.70;;;2.50;;
77326;SDS011;66399;52.322;20.980;2023-03-26T02:24:56;5.10;;;2.50;;
77326;SDS011;66399;52.322;20.980;2023-03-26T02:29:02;6.00;;;2.40;;
77326;SDS011;66399;52.322;20.980;2023-03-26T02:33:07;5.10;;;2.10;;
77326;SDS011;66399;52.322;20.980;2023-03-26T02:37:13;3.90;;;2.20;;
77326;SDS011;66399;52.322;20.980;2023-03-26T02:41:22;5.80;;;2.30;;
77326;SDS011;66399;52.322;20.980;2023-03-26T02:45:27;6.00;;;2.20;;
77326;SDS011;66399;52.322;20.980;2023-03-26T02:49:32;4.30;;;2.30;;
77326;SDS011;66399;52.322;20.980;2023-03-26T02:53:38;7.30;;;2.50;;
77326;SDS011;66399;52.322;20.980;2023-03-26T02:57:44;6.20;;;2.50;;
77326;SDS011;66399;52.322;20.980;2023-03-26T03:01:49;4.80;;;2.20;;
77326;SDS011;66399;52.322;20.980;2023-03-26T03:05:55;4.40;;;2.30;;
77326;SDS011;66399;52.322;20.980;2023-03-26T03:10:01;5.50;;;2.10;;
77326;SDS011;66399;52.322;20.980;2023-03-26T03:18:10;5.50;;;1.90;;
77326;SDS011;66399;52.322;20.980;2023-03-26T03:22:15;3.60;;;2.10;;
77326;SDS011;66399;52.322;20.980;2023-03-26T03:26:22;6.00;;;2.50;;
77326;SDS011;66399;52.322;20.980;2023-03-26T03:30:30;4.50;;;2.10;;
77326;SDS011;66399;52.322;20.980;2023-03-26T03:34:36;5.00;;;2.00;;
77326;SDS011;66399;52.322;20.980;2023-03-26T03:38:41;4.90;;;2.00;;
77326;SDS011;66399;52.322;20.980;2023-03-26T03:42:47;4.80;;;2.00;;
77326;SDS011;66399;52.322;20.980;2023-03-26T03:46:52;4.10;;;1.90;;
77326;SDS011;66399;52.322;20.980;2023-03-26T03:50:59;4.60;;;2.20;;
77326;SDS011;66399;52.322;20.980;2023-03-26T03:55:05;5.90;;;2.00;;
77326;SDS011;66399;52.322;20.980;2023-03-26T03:59:10;6.50;;;2.10;;
77326;SDS011;66399;52.322;20.980;2023-03-26T04:03:16;4.40;;;1.90;;
77326;SDS011;66399;52.322;20.980;2023-03-26T04:07:36;4.80;;;2.00;;
77326;SDS011;66399;52.322;20.980;2023-03-26T04:11:42;5.20;;;2.20;;
77326;SDS011;66399;52.322;20.980;2023-03-26T04:15:47;4.30;;;2.00;;
77326;SDS011;66399;52.322;20.980;2023-03-26T04:19:53;4.80;;;1.90;;
77326;SDS011;66399;52.322;20.980;2023-03-26T04:28:04;3.90;;;1.90;;
77326;SDS011;66399;52.322;20.980;2023-03-26T04:32:12;3.90;;;1.70;;
77326;SDS011;66399;52.322;20.980;2023-03-26T04:36:23;4.60;;;1.50;;
77326;SDS011;66399;52.322;20.980;2023-03-26T04:40:31;4.10;;;1.60;;
77326;SDS011;66399;52.322;20.980;2023-03-26T04:44:40;4.70;;;2.10;;
77326;SDS011;66399;52.322;20.980;2023-03-26T04:48:46;4.40;;;1.90;;
77326;SDS011;66399;52.322;20.980;2023-03-26T04:52:52;4.80;;;2.00;;
77326;SDS011;66399;52.322;20.980;2023-03-26T04:56:58;5.00;;;1.80;;
77326;SDS011;66399;52.322;20.980;2023-03-26T05:01:05;4.10;;;1.90;;
77326;SDS011;66399;52.322;20.980;2023-03-26T05:05:13;4.00;;;1.80;;
77326;SDS011;66399;52.322;20.980;2023-03-26T05:09:19;4.50;;;1.80;;
77326;SDS011;66399;52.322;20.980;2023-03-26T05:13:24;3.40;;;1.60;;
77326;SDS011;66399;52.322;20.980;2023-03-26T05:17:29;5.90;;;2.60;;
77326;SDS011;66399;52.322;20.980;2023-03-26T05:21:38;4.80;;;2.00;;
77326;SDS011;66399;52.322;20.980;2023-03-26T05:25:43;4.10;;;2.00;;
77326;SDS011;66399;52.322;20.980;2023-03-26T05:29:50;5.70;;;2.30;;
77326;SDS011;66399;52.322;20.980;2023-03-26T05:33:55;5.30;;;1.80;;
77326;SDS011;66399;52.322;20.980;2023-03-26T05:38:00;6.10;;;2.20;;
77326;SDS011;66399;52.322;20.980;2023-03-26T05:42:05;5.40;;;2.20;;
77326;SDS011;66399;52.322;20.980;2023-03-26T05:46:12;8.30;;;2.50;;
77326;SDS011;66399;52.322;20.980;2023-03-26T05:50:17;4.80;;;2.30;;
77326;SDS011;66399;52.322;20.980;2023-03-26T05:54:23;5.70;;;2.70;;
77326;SDS011;66399;52.322;20.980;2023-03-26T05:58:29;11.90;;;3.90;;
77326;SDS011;66399;52.322;20.980;2023-03-26T06:02:34;5.10;;;2.30;;
77326;SDS011;66399;52.322;20.980;2023-03-26T06:06:40;6.20;;;2.40;;
77326;SDS011;66399;52.322;20.980;2023-03-26T06:10:45;4.70;;;2.20;;
77326;SDS011;66399;52.322;20.980;2023-03-26T06:14:51;3.90;;;2.00;;
77326;SDS011;66399;52.322;20.980;2023-03-26T06:18:56;5.30;;;2.20;;
77326;SDS011;66399;52.322;20.980;2023-03-26T06:23:02;3.50;;;2.00;;
77326;SDS011;66399;52.322;20.980;2023-03-26T06:27:08;3.30;;;1.90;;
77326;SDS011;66399;52.322;20.980;2023-03-26T06:31:13;8.00;;;2.50;;
77326;SDS011;66399;52.322;20.980;2023-03-26T06:35:20;4.70;;;2.20;;
77326;SDS011;66399;52.322;20.980;2023-03-26T06:39:26;4.00;;;1.90;;
77326;SDS011;66399;52.322;20.980;2023-03-26T06:43:31;4.50;;;2.00;;
77326;SDS011;66399;52.322;20.980;2023-03-26T06:47:39;5.30;;;2.00;;
77326;SDS011;66399;52.322;20.980;2023-03-26T06:51:45;4.10;;;2.00;;
77326;SDS011;66399;52.322;20.980;2023-03-26T07:04:46;4.00;;;1.80;;
77326;SDS011;66399;52.322;20.980;2023-03-26T07:08:52;3.80;;;1.90;;
77326;SDS011;66399;52.322;20.980;2023-03-26T07:13:06;4.30;;;1.70;;
77326;SDS011;66399;52.322;20.980;2023-03-26T07:17:11;4.20;;;1.80;;
77326;SDS011;66399;52.322;20.980;2023-03-26T07:21:30;5.10;;;2.10;;
77326;SDS011;66399;52.322;20.980;2023-03-26T07:25:37;4.40;;;1.90;;
77326;SDS011;66399;52.322;20.980;2023-03-26T07:39:07;3.60;;;1.70;;
77326;SDS011;66399;52.322;20.980;2023-03-26T07:47:36;3.30;;;1.60;;
77326;SDS011;66399;52.322;20.980;2023-03-26T07:51:50;3.90;;;1.60;;
77326;SDS011;66399;52.322;20.980;2023-03-26T07:55:59;4.40;;;1.70;;
77326;SDS011;66399;52.322;20.980;2023-03-26T08:14:06;4.90;;;2.00;;
77326;SDS011;66399;52.322;20.980;2023-03-26T08:18:34;3.30;;;1.70;;
77326;SDS011;66399;52.322;20.980;2023-03-26T08:22:44;3.50;;;1.70;;
77326;SDS011;66399;52.322;20.980;2023-03-26T08:26:55;4.00;;;1.60;;
77326;SDS011;66399;52.322;20.980;2023-03-26T08:39:44;3.20;;;1.60;;
77326;SDS011;66399;52.322;20.980;2023-03-26T08:56:41;2.30;;;1.40;;
77326;SDS011;66399;52.322;20.980;2023-03-26T09:46:41;5.80;;;2.30;;
77326;SDS011;66399;52.322;20.980;2023-03-26T10:27:13;2.60;;;1.50;;
77326;SDS011;66399;52.322;20.980;2023-03-26T10:54:10;2.10;;;1.20;;
77326;SDS011;66399;52.322;20.980;2023-03-26T10:58:21;2.90;;;1.30;;
77326;SDS011;66399;52.322;20.980;2023-03-26T11:02:38;2.30;;;1.30;;
77326;SDS011;66399;52.322;20.980;2023-03-26T11:11:12;3.20;;;1.20;;
77326;SDS011;66399;52.322;20.980;2023-03-26T11:15:48;3.00;;;1.10;;
77326;SDS011;66399;52.322;20.980;2023-03-26T11:19:57;1.60;;;0.80;;
77326;SDS011;66399;52.322;20.980;2023-03-26T11:28:27;3.20;;;1.20;;
77326;SDS011;66399;52.322;20.980;2023-03-26T11:41:54;3.50;;;1.60;;
77326;SDS011;66399;52.322;20.980;2023-03-26T11:46:51;2.20;;;1.20;;
77326;SDS011;66399;52.322;20.980;2023-03-26T11:55:15;2.40;;;1.30;;
77326;SDS011;66399;52.322;20.980;2023-03-26T11:59:21;1.90;;;0.60;;
77326;SDS011;66399;52.322;20.980;2023-03-26T12:07:50;1.70;;;1.00;;
77326;SDS011;66399;52.322;20.980;2023-03-26T12:21:23;2.60;;;1.30;;
77326;SDS011;66399;52.322;20.980;2023-03-26T12:25:30;2.90;;;1.50;;
77326;SDS011;66399;52.322;20.980;2023-03-26T12:29:35;3.70;;;1.50;;
77326;SDS011;66399;52.322;20.980;2023-03-26T12:33:44;2.50;;;1.70;;
77326;SDS011;66399;52.322;20.980;2023-03-26T12:37:50;2.60;;;1.40;;
77326;SDS011;66399;52.322;20.980;2023-03-26T12:41:57;1.90;;;1.10;;
77326;SDS011;66399;52.322;20.980;2023-03-26T12:46:23;1.90;;;0.90;;
77326;SDS011;66399;52.322;20.980;2023-03-26T12:50:52;1.50;;;1.00;;
77326;SDS011;66399;52.322;20.980;2023-03-26T12:59:21;2.20;;;1.00;;
77326;SDS011;66399;52.322;20.980;2023-03-26T13:03:53;1.80;;;1.00;;
77326;SDS011;66399;52.322;20.980;2023-03-26T13:08:21;2.20;;;1.40;;
77326;SDS011;66399;52.322;20.980;2023-03-26T13:13:20;2.10;;;1.00;;
77326;SDS011;66399;52.322;20.980;2023-03-26T13:39:49;2.70;;;1.20;;
77326;SDS011;66399;52.322;20.980;2023-03-26T13:43:58;1.50;;;0.80;;
77326;SDS011;66399;52.322;20.980;2023-03-26T13:48:10;2.00;;;1.00;;
77326;SDS011;66399;52.322;20.980;2023-03-26T13:52:18;2.00;;;1.00;;
77326;SDS011;66399;52.322;20.980;2023-03-26T13:56:42;3.00;;;1.20;;
77326;SDS011;66399;52.322;20.980;2023-03-26T14:00:53;1.80;;;1.10;;
77326;SDS011;66399;52.322;20.980;2023-03-26T14:05:03;2.50;;;1.10;;
77326;SDS011;66399;52.322;20.980;2023-03-26T14:09:11;2.20;;;1.30;;
77326;SDS011;66399;52.322;20.980;2023-03-26T14:13:42;2.80;;;1.40;;
77326;SDS011;66399;52.322;20.980;2023-03-26T14:22:14;3.20;;;1.10;;
77326;SDS011;66399;52.322;20.980;2023-03-26T14:36:16;1.70;;;1.00;;
77326;SDS011;66399;52.322;20.980;2023-03-26T14:44:46;2.60;;;1.10;;
77326;SDS011;66399;52.322;20.980;2023-03-26T14:58:54;1.40;;;0.70;;
77326;SDS011;66399;52.322;20.980;2023-03-26T15:03:27;2.50;;;1.10;;
77326;SDS011;66399;52.322;20.980;2023-03-26T15:07:46;1.90;;;1.00;;
77326;SDS011;66399;52.322;20.980;2023-03-26T15:34:00;3.10;;;1.40;;
77326;SDS011;66399;52.322;20.980;2023-03-26T16:19:33;2.30;;;1.00;;
77326;SDS011;66399;52.322;20.980;2023-03-26T16:23:51;1.40;;;0.90;;
77326;SDS011;66399;52.322;20.980;2023-03-26T16:32:23;2.20;;;1.00;;
77326;SDS011;66399;52.322;20.980;2023-03-26T16:45:18;2.80;;;1.10;;
77326;SDS011;66399;52.322;20.980;2023-03-26T16:50:02;1.50;;;0.90;;
77326;SDS011;66399;52.322;20.980;2023-03-26T16:54:14;3.20;;;1.20;;
77326;SDS011;66399;52.322;20.980;2023-03-26T16:58:24;3.20;;;1.10;;
77326;SDS011;66399;52.322;20.980;2023-03-26T17:02:34;2.10;;;1.10;;
77326;SDS011;66399;52.322;20.980;2023-03-26T17:06:49;2.90;;;1.20;;
77326;SDS011;66399;52.322;20.980;2023-03-26T17:11:00;2.90;;;1.10;;
77326;SDS011;66399;52.322;20.980;2023-03-26T17:15:12;2.30;;;1.10;;
77326;SDS011;66399;52.322;20.980;2023-03-26T17:19:23;2.10;;;1.20;;
77326;SDS011;66399;52.322;20.980;2023-03-26T17:23:33;1.30;;;0.80;;
77326;SDS011;66399;52.322;20.980;2023-03-26T17:27:44;1.90;;;1.00;;
77326;SDS011;66399;52.322;20.980;2023-03-26T17:31:56;3.00;;;1.20;;
77326;SDS011;66399;52.322;20.980;2023-03-26T17:40:44;5.10;;;1.40;;
77326;SDS011;66399;52.322;20.980;2023-03-26T17:44:49;3.40;;;1.30;;
77326;SDS011;66399;52.322;20.980;2023-03-26T17:49:00;2.70;;;1.50;;
77326;SDS011;66399;52.322;20.980;2023-03-26T17:53:11;2.50;;;1.30;;
77326;SDS011;66399;52.322;20.980;2023-03-26T17:57:20;3.10;;;1.50;;
77326;SDS011;66399;52.322;20.980;2023-03-26T18:01:28;3.90;;;1.50;;
77326;SDS011;66399;52.322;20.980;2023-03-26T18:05:36;6.60;;;1.90;;
77326;SDS011;66399;52.322;20.980;2023-03-26T18:09:46;5.30;;;2.30;;
77326;SDS011;66399;52.322;20.980;2023-03-26T18:14:02;7.90;;;3.50;;
77326;SDS011;66399;52.322;20.980;2023-03-26T18:18:13;8.20;;;3.60;;
77326;SDS011;66399;52.322;20.980;2023-03-26T18:22:21;6.50;;;3.20;;
77326;SDS011;66399;52.322;20.980;2023-03-26T18:26:32;5.20;;;2.50;;
77326;SDS011;66399;52.322;20.980;2023-03-26T18:30:42;4.40;;;2.30;;
77326;SDS011;66399;52.322;20.980;2023-03-26T18:34:50;4.70;;;2.50;;
77326;SDS011;66399;52.322;20.980;2023-03-26T18:38:58;6.70;;;2.80;;
77326;SDS011;66399;52.322;20.980;2023-03-26T18:43:03;7.90;;;3.00;;
77326;SDS011;66399;52.322;20.980;2023-03-26T18:47:09;7.80;;;3.10;;
77326;SDS011;66399;52.322;20.980;2023-03-26T18:51:15;6.60;;;2.70;;
77326;SDS011;66399;52.322;20.980;2023-03-26T18:55:26;4.90;;;2.40;;
77326;SDS011;66399;52.322;20.980;2023-03-26T18:59:33;7.80;;;2.80;;
77326;SDS011;66399;52.322;20.980;2023-03-26T19:07:48;8.40;;;3.20;;
77326;SDS011;66399;52.322;20.980;2023-03-26T19:11:55;10.30;;;3.70;;
77326;SDS011;66399;52.322;20.980;2023-03-26T19:16:01;8.50;;;3.10;;
77326;SDS011;66399;52.322;20.980;2023-03-26T19:20:12;7.10;;;2.80;;
77326;SDS011;66399;52.322;20.980;2023-03-26T19:24:19;7.00;;;2.50;;
77326;SDS011;66399;52.322;20.980;2023-03-26T19:28:26;6.10;;;2.90;;
77326;SDS011;66399;52.322;20.980;2023-03-26T19:32:32;5.10;;;2.30;;
77326;SDS011;66399;52.322;20.980;2023-03-26T19:36:46;60.00;;;18.90;;
77326;SDS011;66399;52.322;20.980;2023-03-26T19:40:55;35.50;;;11.60;;
77326;SDS011;66399;52.322;20.980;2023-03-26T19:45:02;16.40;;;6.20;;
77326;SDS011;66399;52.322;20.980;2023-03-26T19:49:21;15.00;;;6.20;;
77326;SDS011;66399;52.322;20.980;2023-03-26T19:53:31;10.90;;;4.20;;
77326;SDS011;66399;52.322;20.980;2023-03-26T19:57:38;12.90;;;4.70;;
77326;SDS011;66399;52.322;20.980;2023-03-26T20:01:43;9.50;;;4.30;;
77326;SDS011;66399;52.322;20.980;2023-03-26T20:05:48;12.00;;;4.70;;
77326;SDS011;66399;52.322;20.980;2023-03-26T20:09:54;10.30;;;3.90;;
77326;SDS011;66399;52.322;20.980;2023-03-26T20:14:00;8.40;;;3.50;;
77326;SDS011;66399;52.322;20.980;2023-03-26T20:18:05;9.70;;;4.10;;
77326;SDS011;66399;52.322;20.980;2023-03-26T20:22:12;9.90;;;4.20;;
77326;SDS011;66399;52.322;20.980;2023-03-26T20:26:18;8.80;;;3.90;;
77326;SDS011;66399;52.322;20.980;2023-03-26T20:30:24;7.80;;;4.30;;
77326;SDS011;66399;52.322;20.980;2023-03-26T20:34:40;11.00;;;4.70;;
77326;SDS011;66399;52.322;20.980;2023-03-26T20:38:46;9.90;;;4.20;;
77326;SDS011;66399;52.322;20.980;2023-03-26T20:42:51;11.20;;;5.50;;
77326;SDS011;66399;52.322;20.980;2023-03-26T20:46:56;8.40;;;4.30;;
77326;SDS011;66399;52.322;20.980;2023-03-26T20:51:02;9.60;;;4.90;;
77326;SDS011;66399;52.322;20.980;2023-03-26T20:55:09;11.40;;;4.80;;
77326;SDS011;66399;52.322;20.980;2023-03-26T20:59:17;10.80;;;5.20;;
77326;SDS011;66399;52.322;20.980;2023-03-26T21:03:24;12.60;;;5.40;;
77326;SDS011;66399;52.322;20.980;2023-03-26T21:07:30;12.80;;;5.20;;
77326;SDS011;66399;52.322;20.980;2023-03-26T21:11:41;13.00;;;5.60;;
77326;SDS011;66399;52.322;20.980;2023-03-26T21:15:48;9.70;;;4.30;;
77326;SDS011;66399;52.322;20.980;2023-03-26T21:23:58;11.60;;;5.40;;
77326;SDS011;66399;52.322;20.980;2023-03-26T21:28:10;15.40;;;6.00;;
77326;SDS011;66399;52.322;20.980;2023-03-26T21:32:19;13.20;;;6.30;;
77326;SDS011;66399;52.322;20.980;2023-03-26T21:36:25;13.70;;;6.30;;
77326;SDS011;66399;52.322;20.980;2023-03-26T21:40:31;16.30;;;6.30;;
77326;SDS011;66399;52.322;20.980;2023-03-26T21:48:41;12.90;;;5.80;;
77326;SDS011;66399;52.322;20.980;2023-03-26T21:52:48;12.00;;;6.00;;
77326;SDS011;66399;52.322;20.980;2023-03-26T21:56:59;11.60;;;5.00;;
77326;SDS011;66399;52.322;20.980;2023-03-26T22:05:32;11.30;;;5.20;;
77326;SDS011;66399;52.322;20.980;2023-03-26T22:09:42;11.30;;;5.10;;
77326;SDS011;66399;52.322;20.980;2023-03-26T22:13:47;8.70;;;4.10;;
77326;SDS011;66399;52.322;20.980;2023-03-26T22:17:59;11.00;;;4.80;;
77326;SDS011;66399;52.322;20.980;2023-03-26T22:26:08;11.00;;;5.10;;
77326;SDS011;66399;52.322;20.980;2023-03-26T22:30:14;11.20;;;5.30;;
77326;SDS011;66399;52.322;20.980;2023-03-26T22:34:19;12.30;;;5.40;;
77326;SDS011;66399;52.322;20.980;2023-03-26T22:38:26;12.20;;;5.40;;
77326;SDS011;66399;52.322;20.980;2023-03-26T22:42:31;12.10;;;6.00;;
77326;SDS011;66399;52.322;20.980;2023-03-26T22:46:36;11.70;;;5.40;;
77326;SDS011;66399;52.322;20.980;2023-03-26T22:50:41;12.30;;;5.50;;
77326;SDS011;66399;52.322;20.980;2023-03-26T22:54:47;11.80;;;5.00;;
77326;SDS011;66399;52.322;20.980;2023-03-26T22:58:52;11.60;;;5.80;;
77326;SDS011;66399;52.322;20.980;2023-03-26T23:02:58;13.50;;;6.20;;
77326;SDS011;66399;52.322;20.980;2023-03-26T23:11:08;12.40;;;5.60;;
77326;SDS011;66399;52.322;20.980;2023-03-26T23:15:13;11.90;;;5.50;;
77326;SDS011;66399;52.322;20.980;2023-03-26T23:19:19;11.00;;;5.20;;
77326;SDS011;66399;52.322;20.980;2023-03-26T23:23:25;12.30;;;5.00;;
77326;SDS011;66399;52.322;20.980;2023-03-26T23:27:31;12.50;;;5.50;;
77326;SDS011;66399;52.322;20.980;2023-03-26T23:31:36;10.90;;;4.90;;
77326;SDS011;66399;52.322;20.980;2023-03-26T23:35:45;10.70;;;5.00;;
77326;SDS011;66399;52.322;20.980;2023-03-26T23:39:50;11.40;;;5.60;;
77326;SDS011;66399;52.322;20.980;2023-03-26T23:43:56;11.30;;;5.40;;
77326;SDS011;66399;52.322;20.980;2023-03-26T23:48:01;11.80;;;5.50;;
77326;SDS011;66399;52.322;20.980;2023-03-26T23:52:07;10.40;;;5.20;;
77326;SDS011;66399;52.322;20.980;2023-03-26T23:56:12;12.00;;;5.90;;
